« Back
NWS Peachtree City, Ga » Text Product » ATL Terminal Aerodrome Forecast


Printer-friendly Version
Current Version              Previous Versions:   1  2  3  4  5  6  7  8  9  

Terminal Aerodrome Forecast

459
FTUS42 KFFC 191136
TAFATL
TAF
KATL 191136Z 1912/2018 32008KT P6SM FEW150 BKN250
     FM191800 02005KT P6SM OVC120
     FM200300 04005KT P6SM VCSH BKN040 OVC080
     FM200700 06004KT P6SM -SHRA OVC035
     FM201500 06006KT P6SM VCSH BKN050=



USA.gov is the U.S. government's official web portal to all federal, state and local government web resources and services.